Time;durP1;ratioP1;P1;durP2;ratioP2;P2;SDS_P1;SDS_P2;PMS_P1;PMS_P2;Temp;Humidity;BMP_temperature;BMP_pressure;BME280_temperature;BME280_humidity;BME280_pressure;Samples;Min_cycle;Max_cycle;Signal;HPM_P1;HPM_P2
2023/02/23 00:01:12;;;;;;;14.18;10.23;;;;;;;19.49;43.84;101170.91;5123667;27;21115;-68
2023/02/23 00:03:37;;;;;;;15.70;10.82;;;;;;;19.47;43.79;101169.34;5123579;27;20490;-69
2023/02/23 00:06:02;;;;;;;14.82;10.45;;;;;;;19.48;43.79;101176.31;5123390;27;20129;-68
2023/02/23 00:08:28;;;;;;;14.90;10.95;;;;;;;19.48;43.76;101171.03;5123476;27;20037;-69
2023/02/23 00:10:57;;;;;;;15.35;11.48;;;;;;;19.45;43.78;101166.81;5123024;27;20423;-69
2023/02/23 00:13:23;;;;;;;15.50;11.48;;;;;;;19.45;43.88;101168.63;5123377;27;20262;-68
2023/02/23 00:15:48;;;;;;;15.00;11.32;;;;;;;19.41;43.83;101168.03;5122782;27;20503;-66
2023/02/23 00:18:13;;;;;;;14.80;10.43;;;;;;;19.44;43.67;101177.50;5123276;27;20023;-68
2023/02/23 00:20:43;;;;;;;15.53;10.63;;;;;;;19.43;43.92;101167.91;5123337;27;20027;-68
2023/02/23 00:23:08;;;;;;;13.23;10.30;;;;;;;19.39;43.52;101173.47;5122769;27;20310;-68
2023/02/23 00:25:37;;;;;;;15.20;11.02;;;;;;;19.36;43.80;101157.03;5123016;27;20030;-67
2023/02/23 00:28:06;;;;;;;14.07;10.35;;;;;;;19.37;43.63;101166.59;5123044;27;20031;-67
2023/02/23 00:30:31;;;;;;;14.93;11.30;;;;;;;19.32;43.73;101158.22;5122628;27;20035;-67
2023/02/23 00:32:56;;;;;;;16.52;11.20;;;;;;;19.34;43.50;101164.22;5104519;27;20051;-67
2023/02/23 00:35:23;;;;;;;14.65;11.10;;;;;;;19.34;43.79;101164.22;5104658;27;20027;-68
2023/02/23 00:37:49;;;;;;;14.25;10.25;;;;;;;19.32;43.74;101166.97;5122920;27;20063;-68
2023/02/23 00:40:16;;;;;;;14.02;10.07;;;;;;;19.30;43.74;101160.16;5122609;27;20127;-68
2023/02/23 00:42:46;;;;;;;16.30;11.20;;;;;;;19.29;43.73;101161.09;5104111;27;20110;-67
2023/02/23 00:45:13;;;;;;;16.85;11.93;;;;;;;19.31;43.75;101160.03;5123038;27;20031;-68
2023/02/23 00:47:43;;;;;;;16.50;11.00;;;;;;;19.26;43.83;101159.53;5123142;27;20126;-68
2023/02/23 00:50:13;;;;;;;14.73;11.10;;;;;;;19.28;43.75;101156.78;5122589;27;20027;-67
2023/02/23 00:52:40;;;;;;;15.90;11.05;;;;;;;19.29;43.73;101159.28;5122797;27;20083;-67
2023/02/23 00:55:07;;;;;;;14.82;10.70;;;;;;;19.27;43.50;101152.47;5122540;27;20200;-68
2023/02/23 00:57:33;;;;;;;15.57;10.98;;;;;;;19.24;43.59;101161.47;5122613;27;20034;-68
2023/02/23 00:59:58;;;;;;;14.77;11.75;;;;;;;19.25;43.65;101160.53;5122422;27;20062;-67
2023/02/23 01:02:24;;;;;;;16.05;11.20;;;;;;;19.25;43.68;101159.66;5121990;27;20080;-67
2023/02/23 01:04:49;;;;;;;16.80;11.65;;;;;;;19.26;43.83;101164.00;5122349;27;20027;-68
2023/02/23 01:07:14;;;;;;;15.38;11.60;;;;;;;19.20;43.68;101155.63;5122494;27;20035;-67
2023/02/23 01:09:40;;;;;;;15.02;10.95;;;;;;;19.22;43.65;101166.06;5122282;27;20106;-69
2023/02/23 01:12:06;;;;;;;14.27;10.88;;;;;;;19.21;43.60;101159.09;5122078;27;20035;-68
2023/02/23 01:14:32;;;;;;;15.95;11.13;;;;;;;19.23;43.69;101165.06;5122016;27;20175;-66
2023/02/23 01:16:57;;;;;;;15.75;11.20;;;;;;;19.21;43.71;101162.56;5122214;27;20043;-67
2023/02/23 01:19:22;;;;;;;15.25;10.70;;;;;;;19.22;43.60;101168.69;5122327;27;20467;-68
2023/02/23 01:21:48;;;;;;;14.80;10.82;;;;;;;19.19;43.81;101159.22;5121886;27;20423;-67
2023/02/23 01:24:13;;;;;;;15.40;10.70;;;;;;;19.19;43.67;101164.50;5122160;27;20083;-68
2023/02/23 01:26:42;;;;;;;17.00;11.45;;;;;;;19.15;43.89;101163.06;5122344;27;20122;-68
2023/02/23 01:29:14;;;;;;;17.60;11.68;;;;;;;19.17;43.66;101171.72;5121808;27;20043;-68
2023/02/23 01:31:42;;;;;;;16.60;11.82;;;;;;;19.17;43.80;101173.53;5121902;27;20106;-68
2023/02/23 01:34:10;;;;;;;17.23;12.25;;;;;;;19.15;43.53;101164.84;5120452;27;20079;-68
2023/02/23 01:36:38;;;;;;;15.98;11.35;;;;;;;19.13;43.72;101162.34;5103551;27;20035;-69
2023/02/23 01:39:06;;;;;;;18.50;12.55;;;;;;;19.12;43.64;101163.31;5122366;27;20130;-69
2023/02/23 01:41:33;;;;;;;17.55;12.63;;;;;;;19.11;43.45;101166.91;5121466;28;20027;-68
2023/02/23 01:44:03;;;;;;;18.17;12.55;;;;;;;19.14;43.69;101171.94;5121398;27;20023;-68
2023/02/23 01:46:34;;;;;;;17.67;12.85;;;;;;;19.12;43.77;101165.09;5121817;27;20035;-68
2023/02/23 01:49:02;;;;;;;16.67;12.32;;;;;;;19.09;43.78;101168.84;5121762;28;20467;-68
2023/02/23 01:51:33;;;;;;;16.92;11.80;;;;;;;19.09;43.67;101176.78;5121277;27;20126;-67
2023/02/23 01:54:30;;;;;;;19.15;12.98;;;;;;;19.11;43.67;101176.66;5125680;27;20463;-66
2023/02/23 01:56:59;;;;;;;17.52;12.73;;;;;;;19.07;43.61;101173.41;5125063;27;20343;-67
2023/02/23 01:59:36;;;;;;;20.55;12.35;;;;;;;19.07;43.62;101169.94;5125929;27;20035;-68
2023/02/23 02:02:04;;;;;;;17.40;12.80;;;;;;;19.09;43.58;101182.06;5125884;27;20035;-67
2023/02/23 02:04:33;;;;;;;18.77;14.07;;;;;;;19.06;43.39;101177.03;5107423;27;20027;-68
2023/02/23 02:07:03;;;;;;;17.33;12.88;;;;;;;19.03;43.87;101178.09;5126101;27;20535;-68
2023/02/23 02:09:28;;;;;;;19.48;13.15;;;;;;;19.03;43.62;101178.09;5124500;27;20479;-67
2023/02/23 02:11:53;;;;;;;18.23;13.13;;;;;;;19.05;43.54;101185.06;5125412;27;20120;-67
2023/02/23 02:14:25;;;;;;;19.48;12.98;;;;;;;19.02;43.77;101179.03;5107359;27;20076;-66
2023/02/23 02:17:19;;;;;;;18.10;13.07;;;;;;;19.00;43.51;101182.78;5125450;27;20047;-67
2023/02/23 02:20:05;;;;;;;17.60;12.23;;;;;;;19.05;43.46;101188.53;5125614;27;20035;-68
2023/02/23 02:23:08;;;;;;;17.92;12.65;;;;;;;19.02;43.61;101181.69;5106800;27;20474;-67
2023/02/23 02:25:56;;;;;;;17.02;11.98;;;;;;;19.01;43.48;101180.03;5125323;27;20068;-68
2023/02/23 02:28:29;;;;;;;16.52;12.48;;;;;;;19.02;43.42;101183.50;5125543;27;20048;-68
2023/02/23 02:31:09;;;;;;;17.80;12.95;;;;;;;19.00;43.48;101185.44;5125314;27;20031;-68
2023/02/23 02:33:59;;;;;;;17.00;11.85;;;;;;;18.96;43.61;101178.69;5125504;27;20035;-68
2023/02/23 02:36:27;;;;;;;18.38;12.15;;;;;;;18.98;43.18;101182.91;5125447;27;20027;-68
2023/02/23 02:39:07;;;;;;;16.65;12.25;;;;;;;18.96;43.46;101176.91;5125255;27;20035;-68
2023/02/23 02:42:06;;;;;;;18.02;12.85;;;;;;;18.97;43.42;101181.22;5124902;27;20031;-67
2023/02/23 02:44:40;;;;;;;17.92;12.15;;;;;;;18.97;43.54;101177.75;5124863;27;20042;-68
2023/02/23 02:47:16;;;;;;;18.50;12.63;;;;;;;18.94;43.12;101172.72;5125231;27;20041;-68
2023/02/23 02:49:54;;;;;;;16.10;12.25;;;;;;;18.96;43.36;101176.06;5125289;27;20959;-68
2023/02/23 02:52:27;;;;;;;17.50;12.70;;;;;;;18.93;43.60;101187.72;5124893;27;20038;-69
2023/02/23 02:54:59;;;;;;;18.30;12.52;;;;;;;18.94;43.37;101180.63;5124875;27;20172;-68
2023/02/23 02:57:27;;;;;;;18.42;12.45;;;;;;;18.91;43.55;101178.22;5124950;27;20542;-69
2023/02/23 04:17:58;;;;;;;16.77;12.13;;;;;;;18.79;43.32;101209.91;5123411;27;20103;-69
2023/02/23 04:20:24;;;;;;;18.08;12.00;;;;;;;18.76;43.30;101212.78;5123055;27;20472;-68
2023/02/23 04:22:50;;;;;;;16.88;11.98;;;;;;;18.76;43.48;101210.13;5122772;27;20096;-68
2023/02/23 04:25:17;;;;;;;15.68;11.57;;;;;;;18.75;43.25;101211.09;5123292;27;20039;-69
2023/02/23 04:27:42;;;;;;;17.08;12.15;;;;;;;18.74;43.33;101214.69;5123178;27;20027;-69
2023/02/23 04:30:10;;;;;;;15.25;11.77;;;;;;;18.73;43.27;101214.81;5122951;27;20100;-68
2023/02/23 04:32:36;;;;;;;16.17;11.95;;;;;;;18.71;43.35;101211.44;5122762;27;20383;-68
2023/02/23 04:35:01;;;;;;;15.88;11.73;;;;;;;18.71;43.32;101214.06;5123050;27;20035;-68
2023/02/23 04:37:27;;;;;;;16.65;11.55;;;;;;;18.74;43.28;101222.63;5122989;27;20035;-68
2023/02/23 04:39:52;;;;;;;16.08;12.02;;;;;;;18.72;43.40;101221.88;5122920;27;20045;-70
2023/02/23 04:42:18;;;;;;;17.52;11.90;;;;;;;18.74;43.22;101221.75;5122901;27;20122;-68
2023/02/23 04:44:44;;;;;;;16.83;11.77;;;;;;;18.71;43.16;101216.72;5122609;27;20994;-68
2023/02/23 04:47:09;;;;;;;15.73;11.70;;;;;;;18.72;43.31;101221.88;5122714;27;20581;-68
2023/02/23 04:49:34;;;;;;;16.80;11.88;;;;;;;18.72;43.39;101228.97;5122707;27;20462;-68
2023/02/23 04:52:00;;;;;;;16.90;11.70;;;;;;;18.65;43.24;101215.41;5122417;27;20062;-68
2023/02/23 04:54:25;;;;;;;16.48;11.93;;;;;;;18.71;43.21;101229.91;5122856;27;20042;-69
2023/02/23 04:56:51;;;;;;;15.38;10.70;;;;;;;18.70;43.30;101231.72;5122206;27;20035;-68
2023/02/23 04:59:17;;;;;;;15.85;11.40;;;;;;;18.71;43.60;101230.78;5122990;27;20100;-66
2023/02/23 05:01:42;;;;;;;16.25;11.77;;;;;;;18.68;43.26;101226.56;5122152;27;20027;-66
2023/02/23 05:04:08;;;;;;;16.55;11.27;;;;;;;18.66;43.42;101223.22;5122281;27;20031;-68
2023/02/23 05:06:33;;;;;;;15.32;10.68;;;;;;;18.70;43.26;101233.53;5103846;27;20027;-68
2023/02/23 05:08:58;;;;;;;16.02;11.23;;;;;;;18.67;43.25;101230.19;5122613;27;20066;-67
2023/02/23 05:11:26;;;;;;;14.55;10.40;;;;;;;18.68;43.46;101229.22;5122267;27;20452;-66
2023/02/23 05:13:53;;;;;;;17.52;11.27;;;;;;;18.68;43.46;101233.66;5122040;27;20338;-68
2023/02/23 05:16:18;;;;;;;15.77;10.60;;;;;;;18.70;43.31;101241.47;5122668;27;20506;-68
2023/02/23 05:18:43;;;;;;;16.58;11.23;;;;;;;18.65;43.37;101237.38;5121731;27;20109;-66
2023/02/23 05:21:09;;;;;;;15.13;10.63;;;;;;;18.68;43.35;101237.13;5121881;27;20023;-67
2023/02/23 05:23:35;;;;;;;13.48;10.30;;;;;;;18.66;43.51;101232.94;5122119;27;20279;-66
2023/02/23 05:26:04;;;;;;;15.68;10.93;;;;;;;18.66;43.44;101236.41;5120721;27;20023;-68
2023/02/23 05:28:30;;;;;;;16.25;11.65;;;;;;;18.65;43.20;101236.53;5119968;27;20368;-67
2023/02/23 05:30:55;;;;;;;14.77;11.02;;;;;;;18.65;43.31;101242.66;5121829;27;20038;-66
2023/02/23 05:33:20;;;;;;;15.70;10.63;;;;;;;18.64;43.27;101238.34;5122548;27;20077;-67
2023/02/23 05:35:47;;;;;;;16.13;11.10;;;;;;;18.67;43.15;101243.38;5121711;27;20035;-67
2023/02/23 05:38:12;;;;;;;15.15;10.68;;;;;;;18.64;43.22;101245.41;5122210;27;20034;-67
2023/02/23 05:40:38;;;;;;;15.20;10.90;;;;;;;18.63;43.20;101254.31;5121202;27;20035;-67
2023/02/23 05:43:04;;;;;;;15.23;10.85;;;;;;;18.62;43.19;101250.78;5121426;28;20539;-68
2023/02/23 05:45:29;;;;;;;15.07;11.30;;;;;;;18.61;43.21;101241.22;5121955;28;20152;-66
2023/02/23 05:47:54;;;;;;;13.90;9.93;;;;;;;18.62;43.23;101255.25;5121663;28;20128;-68
2023/02/23 05:50:20;;;;;;;13.65;10.23;;;;;;;18.60;43.44;101244.81;5120964;27;20111;-67
2023/02/23 05:52:45;;;;;;;12.85;9.32;;;;;;;18.59;43.24;101247.56;5121566;27;20042;-68
2023/02/23 05:55:10;;;;;;;15.00;10.13;;;;;;;18.62;43.10;101248.16;5121885;28;20023;-67
2023/02/23 05:57:37;;;;;;;13.20;9.48;;;;;;;18.60;43.24;101251.91;5121455;28;20958;-68
2023/02/23 06:00:04;;;;;;;13.38;9.25;;;;;;;18.63;43.24;101259.56;5120765;28;20038;-68
2023/02/23 06:02:30;;;;;;;12.60;8.85;;;;;;;18.62;43.35;101258.72;5121398;28;20109;-68
2023/02/23 06:04:55;;;;;;;13.20;9.93;;;;;;;18.60;43.43;101258.00;5121319;28;20040;-68
2023/02/23 06:07:21;;;;;;;13.80;9.43;;;;;;;18.58;43.32;101253.78;5121678;28;20027;-68
2023/02/23 06:09:46;;;;;;;12.05;9.02;;;;;;;18.59;43.53;101250.19;5121787;28;20035;-68
2023/02/23 06:12:11;;;;;;;12.43;8.55;;;;;;;18.55;43.56;101252.25;5121633;28;20035;-68
2023/02/23 06:14:36;;;;;;;12.07;8.43;;;;;;;18.57;43.70;101255.59;5121524;27;20042;-68
2023/02/23 06:17:02;;;;;;;11.43;8.52;;;;;;;18.59;43.69;101266.03;5121481;27;20043;-68
2023/02/23 06:19:28;;;;;;;9.47;6.57;;;;;;;18.57;43.63;101260.88;5121437;28;20115;-67
2023/02/23 06:21:53;;;;;;;9.25;6.97;;;;;;;18.59;43.80;101266.88;5102890;27;20260;-68
2023/02/23 06:24:18;;;;;;;9.43;6.37;;;;;;;18.61;43.93;101272.03;5121231;28;20019;-68
2023/02/23 06:26:44;;;;;;;8.90;6.20;;;;;;;18.62;43.93;101277.19;5120884;28;20278;-67
2023/02/23 06:29:10;;;;;;;8.48;5.55;;;;;;;18.64;44.13;101274.44;5121423;28;20530;-69
2023/02/23 06:31:36;;;;;;;9.02;5.57;;;;;;;18.66;44.16;101275.19;5121528;28;20031;-68
2023/02/23 06:34:02;;;;;;;8.02;5.50;;;;;;;18.68;43.96;101282.00;5121496;27;20463;-68
2023/02/23 06:36:27;;;;;;;7.50;5.13;;;;;;;18.69;44.08;101285.47;5121060;27;20031;-66
2023/02/23 06:38:56;;;;;;;8.45;5.55;;;;;;;18.74;44.01;101288.63;5123404;27;20035;-68
2023/02/23 06:41:23;;;;;;;8.55;5.18;;;;;;;18.78;43.79;101292.69;5124117;27;20035;-67
2023/02/23 06:43:48;;;;;;;7.78;5.40;;;;;;;18.77;43.84;101290.19;5124581;27;20035;-68
2023/02/23 06:46:13;;;;;;;8.10;5.03;;;;;;;18.79;43.82;101294.41;5125062;27;20042;-67
2023/02/23 06:48:40;;;;;;;8.45;5.65;;;;;;;18.83;43.91;101298.50;5124919;27;20182;-67
2023/02/23 06:51:05;;;;;;;7.68;4.82;;;;;;;18.89;43.77;101293.72;5123707;27;20039;-67
2023/02/23 06:53:30;;;;;;;8.43;5.53;;;;;;;18.86;43.86;101286.88;5105141;27;20039;-68
2023/02/23 06:55:56;;;;;;;7.10;5.13;;;;;;;18.90;43.94;101296.25;5124894;27;20067;-69
2023/02/23 06:58:21;;;;;;;10.02;5.60;;;;;;;18.91;43.92;101291.78;5124004;27;20045;-67
2023/02/23 07:00:47;;;;;;;7.88;5.25;;;;;;;18.93;44.10;101293.38;5124502;27;20047;-68
2023/02/23 07:03:12;;;;;;;8.52;4.93;;;;;;;18.97;44.52;101299.25;5124538;27;20142;-65
2023/02/23 07:05:37;;;;;;;8.40;4.72;;;;;;;18.98;44.53;101304.41;5124537;27;20045;-67
2023/02/23 07:08:03;;;;;;;7.75;5.63;;;;;;;19.01;44.85;101313.91;5124355;27;20142;-65
2023/02/23 07:10:28;;;;;;;8.65;5.63;;;;;;;19.01;44.85;101308.63;5122132;27;20027;-69
2023/02/23 07:12:53;;;;;;;7.85;5.05;;;;;;;18.99;44.78;101319.31;5123852;27;20038;-67
2023/02/23 07:15:19;;;;;;;10.30;5.88;;;;;;;19.05;44.89;101331.19;5123514;27;20043;-67
2023/02/23 07:17:47;;;;;;;7.43;4.88;;;;;;;19.05;44.89;101327.72;5124392;27;20118;-68
2023/02/23 07:20:14;;;;;;;8.32;5.72;;;;;;;19.07;44.82;101333.72;5124550;27;20061;-67
2023/02/23 07:22:40;;;;;;;8.35;5.18;;;;;;;19.09;44.98;101337.06;5124001;27;20395;-67
2023/02/23 07:25:06;;;;;;;8.75;5.30;;;;;;;19.09;44.83;101334.41;5124427;27;20041;-66
2023/02/23 07:27:31;;;;;;;7.85;5.30;;;;;;;19.06;44.94;101332.88;5124243;27;20035;-66
2023/02/23 07:29:56;;;;;;;8.02;5.25;;;;;;;19.07;44.82;101337.19;5124183;27;20050;-67
2023/02/23 07:32:21;;;;;;;7.43;4.80;;;;;;;19.09;45.52;101350.28;5124296;27;20065;-67
2023/02/23 07:34:47;;;;;;;8.65;5.43;;;;;;;19.09;45.22;101347.63;5124163;27;20267;-67
2023/02/23 07:37:12;;;;;;;10.18;5.53;;;;;;;19.10;45.91;101350.16;5124782;27;20019;-66
2023/02/23 07:39:37;;;;;;;8.80;5.80;;;;;;;19.07;45.86;101352.19;5105430;27;20038;-65
2023/02/23 07:42:03;;;;;;;9.68;5.90;;;;;;;19.12;46.05;101363.25;5124080;27;20038;-67
2023/02/23 07:44:28;;;;;;;11.13;6.13;;;;;;;19.13;45.74;101359.66;5123628;27;20475;-69
2023/02/23 07:46:53;;;;;;;10.57;6.68;;;;;;;19.13;45.62;101365.75;5124093;27;20118;-68
2023/02/23 07:49:19;;;;;;;10.98;5.40;;;;;;;19.16;45.52;101369.97;5123640;27;20051;-68
2023/02/23 07:51:44;;;;;;;8.52;5.30;;;;;;;19.12;45.57;101369.38;5123279;27;20112;-69
2023/02/23 07:54:10;;;;;;;8.02;5.82;;;;;;;19.13;45.60;101373.69;5123759;27;20494;-70
2023/02/23 07:56:35;;;;;;;11.68;5.70;;;;;;;19.16;45.52;101386.66;5123048;27;20105;-69
2023/02/23 07:59:01;;;;;;;9.25;5.68;;;;;;;19.13;45.63;101384.25;5123647;27;20379;-68
2023/02/23 08:01:26;;;;;;;11.48;5.43;;;;;;;19.14;45.60;101391.25;5123604;27;20951;-69
2023/02/23 08:03:51;;;;;;;8.73;5.47;;;;;;;19.15;45.41;101392.06;5104154;27;20471;-69
2023/02/23 08:06:18;;;;;;;13.13;5.95;;;;;;;19.14;45.60;101390.41;5123398;27;20060;-69
2023/02/23 08:08:43;;;;;;;10.30;6.35;;;;;;;19.16;45.37;101396.41;5123863;27;20042;-68
2023/02/23 08:11:09;;;;;;;11.38;5.82;;;;;;;19.13;45.63;101397.47;5123192;27;20027;-68
2023/02/23 08:13:36;;;;;;;7.60;5.20;;;;;;;19.14;45.69;101393.06;5123338;27;20031;-67
2023/02/23 08:16:01;;;;;;;12.50;6.15;;;;;;;19.15;45.95;101395.56;5123479;27;20051;-67
2023/02/23 08:18:26;;;;;;;15.82;5.88;;;;;;;19.15;45.89;101397.34;5123536;27;20539;-67
2023/02/23 08:21:02;;;;;;;9.43;5.65;;;;;;;19.15;45.58;101400.84;5122809;27;20158;-66
2023/02/23 08:23:33;;;;;;;8.63;5.07;;;;;;;19.16;45.75;101406.97;5123306;27;20035;-67
2023/02/23 08:25:59;;;;;;;12.50;5.70;;;;;;;19.15;45.72;101406.16;5123252;27;20031;-66
2023/02/23 08:28:26;;;;;;;10.43;5.63;;;;;;;19.16;45.40;101407.81;5123035;27;20035;-68
2023/02/23 08:30:51;;;;;;;12.90;5.93;;;;;;;19.19;45.43;101415.50;5121221;27;20027;-66
2023/02/23 08:33:17;;;;;;;13.57;6.07;;;;;;;19.17;45.40;101409.50;5122676;27;20039;-65
2023/02/23 08:35:43;;;;;;;9.13;5.32;;;;;;;19.21;45.29;101421.50;5120546;27;20049;-65
2023/02/23 08:38:08;;;;;;;11.77;5.72;;;;;;;19.21;45.21;101428.59;5122463;27;20027;-66
2023/02/23 08:40:33;;;;;;;12.38;5.63;;;;;;;19.18;45.43;101420.91;5122195;27;20666;-66
2023/02/23 08:42:58;;;;;;;9.80;5.97;;;;;;;19.18;45.22;101418.25;5122227;27;20038;-66
2023/02/23 08:45:24;;;;;;;13.23;6.37;;;;;;;19.16;45.18;101421.00;5122447;27;20084;-64
2023/02/23 08:47:49;;;;;;;10.82;5.82;;;;;;;19.19;45.30;101433.16;5122227;27;20267;-64
2023/02/23 08:50:14;;;;;;;11.35;5.57;;;;;;;19.14;45.12;101428.22;5122336;27;20015;-64
2023/02/23 08:52:40;;;;;;;10.32;5.55;;;;;;;19.16;45.40;101436.03;5122575;27;20034;-64
2023/02/23 08:55:06;;;;;;;13.10;6.03;;;;;;;19.17;45.26;101429.81;5118002;27;20751;-65
2023/02/23 08:57:33;;;;;;;12.05;6.25;;;;;;;19.18;45.25;101439.41;5121467;27;20220;-65
2023/02/23 08:59:58;;;;;;;9.95;6.20;;;;;;;19.19;45.35;101435.81;5121907;27;20034;-66
2023/02/23 09:02:23;;;;;;;9.48;6.32;;;;;;;19.21;45.04;101437.34;5120534;27;20427;-65
2023/02/23 09:04:49;;;;;;;11.32;5.70;;;;;;;19.28;45.00;101444.81;5121622;27;20150;-66
2023/02/23 09:07:16;;;;;;;11.57;6.40;;;;;;;19.25;44.84;101439.75;5122002;27;20034;-67
2023/02/23 09:09:42;;;;;;;17.95;6.50;;;;;;;19.27;44.76;101443.97;5120772;27;20034;-67
2023/02/23 09:12:07;;;;;;;14.65;6.50;;;;;;;19.24;44.59;101446.84;5119866;27;20050;-65
2023/02/23 09:14:32;;;;;;;11.60;6.68;;;;;;;19.24;44.87;101448.66;5121360;27;20038;-67
2023/02/23 09:16:58;;;;;;;11.52;6.35;;;;;;;19.24;44.82;101446.84;5120588;27;20670;-66
2023/02/23 09:19:23;;;;;;;10.07;6.30;;;;;;;19.27;44.67;101456.38;5121679;27;20527;-67
2023/02/23 09:21:48;;;;;;;11.57;6.80;;;;;;;19.24;44.60;101454.78;5121734;27;20510;-65
2023/02/23 09:24:17;;;;;;;10.30;6.38;;;;;;;19.23;44.76;101453.09;5120892;27;20030;-66
2023/02/23 09:26:42;;;;;;;12.18;6.63;;;;;;;19.24;44.71;101460.06;5122188;27;20127;-64
2023/02/23 09:29:08;;;;;;;9.57;6.32;;;;;;;19.26;44.63;101465.25;5120742;27;20449;-65
2023/02/23 09:31:33;;;;;;;9.47;6.13;;;;;;;19.23;44.68;101468.94;5122194;27;20031;-66
2023/02/23 09:34:01;;;;;;;11.18;7.10;;;;;;;19.23;44.66;101466.31;5121595;27;20259;-65
2023/02/23 09:36:30;;;;;;;10.13;6.97;;;;;;;19.23;44.75;101471.59;5121744;27;20039;-66
2023/02/23 09:38:57;;;;;;;12.25;6.82;;;;;;;19.23;44.59;101474.22;5121991;27;20042;-65
2023/02/23 09:41:24;;;;;;;11.60;6.65;;;;;;;19.24;44.52;101478.56;5121830;27;20042;-67
2023/02/23 09:44:01;;;;;;;11.90;6.93;;;;;;;19.23;44.62;101481.31;5121903;27;20027;-67
2023/02/23 09:46:37;;;;;;;10.18;6.60;;;;;;;19.19;44.44;101472.78;5121668;28;20242;-67
2023/02/23 09:49:09;;;;;;;9.32;6.15;;;;;;;19.15;44.62;101463.41;5121902;27;20065;-67
2023/02/23 09:51:39;;;;;;;9.23;6.07;;;;;;;19.18;44.68;101471.09;5121669;27;20027;-67
2023/02/23 09:54:10;;;;;;;8.35;5.93;;;;;;;19.20;44.54;101474.47;5121824;28;20456;-67
2023/02/23 09:56:39;;;;;;;10.15;6.35;;;;;;;19.20;44.62;101480.59;5121425;28;20115;-67
2023/02/23 09:59:09;;;;;;;10.40;5.80;;;;;;;19.21;44.60;101484.09;5121847;27;20062;-67
2023/02/23 10:01:47;;;;;;;9.95;5.72;;;;;;;19.15;44.53;101482.75;5121542;27;20039;-66
2023/02/23 10:04:21;;;;;;;9.15;6.13;;;;;;;19.19;44.43;101493.94;5120217;28;20039;-68
2023/02/23 10:07:05;;;;;;;9.57;5.72;;;;;;;19.15;44.53;101498.63;5120741;28;20039;-65
2023/02/23 10:09:50;;;;;;;8.38;6.07;;;;;;;19.13;44.54;101487.31;5121328;27;20139;-67
2023/02/23 10:12:34;;;;;;;7.82;5.53;;;;;;;19.10;44.74;101487.53;5121383;28;20078;-64
2023/02/23 10:15:13;;;;;;;9.27;5.00;;;;;;;19.14;44.88;101490.81;5125527;27;20033;-67
2023/02/23 10:17:50;;;;;;;7.72;4.65;;;;;;;19.13;45.13;101478.53;5125770;27;20027;-67
2023/02/23 10:20:31;;;;;;;8.15;4.90;;;;;;;19.13;45.14;101489.09;5125125;27;20027;-65
2023/02/23 10:23:03;;;;;;;8.15;5.40;;;;;;;19.16;45.00;101491.53;5125570;27;20035;-64
2023/02/23 10:25:33;;;;;;;10.02;5.47;;;;;;;19.15;45.33;101495.97;5125733;27;20898;-64
2023/02/23 10:28:00;;;;;;;10.07;5.10;;;;;;;19.16;45.10;101492.34;5125371;27;20027;-65
2023/02/23 10:30:31;;;;;;;12.10;5.28;;;;;;;19.13;45.87;101486.47;5125284;27;20463;-63
2023/02/23 10:33:19;;;;;;;9.00;4.85;;;;;;;19.15;45.61;101485.41;5125558;27;20066;-65
2023/02/23 10:35:44;;;;;;;8.38;4.82;;;;;;;19.16;45.53;101479.16;5125032;27;20046;-65
2023/02/23 10:38:15;;;;;;;7.80;4.93;;;;;;;19.14;45.79;101475.78;5125420;27;20031;-65
2023/02/23 10:40:42;;;;;;;10.32;4.90;;;;;;;19.10;45.56;101476.97;5125350;27;20050;-66
2023/02/23 10:43:11;;;;;;;13.02;5.28;;;;;;;19.16;45.87;101486.25;5125049;27;20510;-67
2023/02/23 10:45:48;;;;;;;8.75;5.38;;;;;;;19.15;45.97;101493.34;5125266;27;20046;-66
2023/02/23 10:48:27;;;;;;;9.57;5.40;;;;;;;19.20;45.81;101500.88;5125019;27;20031;-63
2023/02/23 10:51:01;;;;;;;9.35;5.53;;;;;;;19.23;45.72;101499.81;5125398;27;20062;-65
2023/02/23 10:53:34;;;;;;;10.45;6.43;;;;;;;19.21;45.70;101495.47;5105923;27;20046;-64
2023/02/23 10:56:18;;;;;;;13.27;6.78;;;;;;;19.19;45.43;101483.38;5124896;27;20395;-63
2023/02/23 10:58:45;;;;;;;9.38;6.65;;;;;;;19.24;45.22;101497.06;5123481;27;20847;-63
2023/02/23 11:01:11;;;;;;;11.32;7.00;;;;;;;19.24;45.26;101496.22;5124631;27;20038;-64
2023/02/23 11:03:49;;;;;;;12.85;6.70;;;;;;;19.23;45.48;101499.81;5105923;27;20066;-64
2023/02/23 11:06:38;;;;;;;14.70;6.43;;;;;;;19.16;45.55;101500.28;5124183;27;20638;-65
2023/02/23 11:09:27;;;;;;;11.32;6.32;;;;;;;19.18;45.93;101500.16;5124493;27;20035;-68
2023/02/23 11:12:14;;;;;;;12.25;5.68;;;;;;;19.15;45.54;101500.41;5123656;27;20035;-68
2023/02/23 11:14:39;;;;;;;10.85;6.18;;;;;;;19.18;45.84;101502.81;5123330;27;20440;-66
2023/02/23 11:17:05;;;;;;;13.88;7.45;;;;;;;19.20;45.64;101508.81;5124079;27;20047;-65
2023/02/23 11:19:36;;;;;;;15.30;8.48;;;;;;;19.22;45.86;101509.56;5124168;27;20665;-66
2023/02/23 11:22:04;;;;;;;15.50;10.23;;;;;;;19.22;45.78;101506.91;5124066;27;20494;-65
2023/02/23 11:24:39;;;;;;;18.27;12.63;;;;;;;19.23;45.75;101505.09;5123615;27;20042;-65
2023/02/23 11:27:19;;;;;;;28.52;17.40;;;;;;;19.22;45.80;101504.28;5123361;27;20088;-67
2023/02/23 11:29:47;;;;;;;23.63;19.17;;;;;;;19.23;46.02;101505.94;5124213;27;20034;-64
2023/02/23 11:32:16;;;;;;;23.30;20.83;;;;;;;19.24;46.31;101498.88;5124021;27;20055;-66
2023/02/23 11:34:42;;;;;;;34.65;25.00;;;;;;;19.26;46.43;101508.34;5124162;27;20027;-65
2023/02/23 11:37:20;;;;;;;29.17;26.10;;;;;;;19.27;46.65;101502.13;5122709;27;20057;-64
2023/02/23 11:39:57;;;;;;;33.90;30.10;;;;;;;19.25;46.79;101493.47;5124291;27;20045;-65
2023/02/23 11:42:32;;;;;;;33.30;29.75;;;;;;;19.28;46.91;101498.53;5123847;27;20122;-65
2023/02/23 11:45:14;;;;;;;36.88;32.67;;;;;;;19.29;46.71;101497.56;5124076;27;20034;-68
2023/02/23 11:47:45;;;;;;;41.03;32.65;;;;;;;19.28;46.73;101490.59;5123702;27;20035;-67
2023/02/23 11:50:32;;;;;;;36.67;32.85;;;;;;;19.32;46.75;101491.19;5123836;27;20758;-67
2023/02/23 11:53:00;;;;;;;35.97;32.25;;;;;;;19.35;46.63;101490.97;5120912;27;20039;-67
2023/02/23 11:55:27;;;;;;;29.80;26.13;;;;;;;19.38;45.88;101501.31;5123286;27;20471;-67
2023/02/23 11:58:07;;;;;;;30.20;26.92;;;;;;;19.35;45.62;101497.09;5122981;27;20391;-68
2023/02/23 12:00:32;;;;;;;31.77;26.98;;;;;;;19.36;45.29;101504.06;5122587;27;20035;-67
2023/02/23 12:03:00;;;;;;;30.52;26.08;;;;;;;19.37;45.50;101510.19;5122490;27;20038;-66
2023/02/23 12:05:29;;;;;;;29.85;26.15;;;;;;;19.34;45.61;101497.19;5122690;27;20467;-68
2023/02/23 12:08:04;;;;;;;27.90;24.85;;;;;;;19.33;45.97;101499.00;5122890;27;20031;-67
2023/02/23 12:10:53;;;;;;;27.88;24.92;;;;;;;19.34;45.82;101481.34;5122455;27;20024;-68
2023/02/23 12:13:47;;;;;;;26.80;23.88;;;;;;;19.35;45.58;101480.41;5122933;27;20042;-65
2023/02/23 12:16:16;;;;;;;;;;;;;;;19.42;45.18;101473.66;5121026;27;20390;-67
2023/02/23 12:18:51;;;;;;;24.50;21.50;;;;;;;19.38;45.35;101466.94;5123105;27;19925;-66
2023/02/23 12:21:28;;;;;;;24.83;22.25;;;;;;;19.38;45.67;101473.06;5103768;27;20394;-69
2023/02/23 12:24:04;;;;;;;23.75;21.17;;;;;;;19.32;45.27;101468.25;5122367;27;20035;-67
2023/02/23 12:26:34;;;;;;;22.98;20.50;;;;;;;19.36;45.39;101464.44;5122761;27;20531;-68
2023/02/23 12:29:17;;;;;;;21.55;19.38;;;;;;;19.39;45.75;101474.75;5121207;27;20035;-71
2023/02/23 12:31:48;;;;;;;25.05;19.73;;;;;;;19.38;45.48;101472.25;5122304;27;20145;-64
2023/02/23 12:34:29;;;;;;;22.70;19.25;;;;;;;19.38;45.53;101482.81;5122114;27;20111;-68
2023/02/23 12:37:06;;;;;;;29.85;18.00;;;;;;;19.31;45.71;101479.81;5121936;27;20151;-64
2023/02/23 12:39:40;;;;;;;20.83;18.63;;;;;;;19.32;46.45;101473.53;5103403;27;20035;-67
2023/02/23 12:42:11;;;;;;;;;;;;;;;19.37;45.90;101476.66;5122648;27;20424;-65